RUK99B EGCC-EIKY
Flight info
| Callsign | RUK99B |
|---|---|
| Flight time | N/A |
| Altitude | 38000 |
| Route | EKLAD Y53 WAL L10 PENIL M144 BAGSO DCT KER |
| Aircraft | B738/M-SDE3FGILRWY/SB1 |
Departure
| Time | N/A |
|---|---|
| Airport | Manchester Airport (EGCC) |
Arrival
| Time | 2026-05-07 18:36 |
|---|---|
| Airport | Kerry Airport (EIKY) |
| Time | Latitude | Longitude | Altitude | Speed | Heading |
|---|---|---|---|---|---|
| 2026-05-07 18:08 | 53.45256 | -6.15382 | 37944 ft | 417 kts | 239° |
| 2026-05-07 18:08 | 53.43775 | -6.19584 | 37954 ft | 418 kts | 239° |
| 2026-05-07 18:09 | 53.40799 | -6.28005 | 37950 ft | 421 kts | 239° |
| 2026-05-07 18:09 | 53.37802 | -6.36458 | 37937 ft | 423 kts | 239° |
| 2026-05-07 18:10 | 53.34780 | -6.44951 | 37939 ft | 425 kts | 239° |
| 2026-05-07 18:10 | 53.31750 | -6.53440 | 37941 ft | 425 kts | 239° |
| 2026-05-07 18:11 | 53.28709 | -6.61931 | 37929 ft | 425 kts | 238° |
| 2026-05-07 18:11 | 53.25665 | -6.70401 | 37936 ft | 425 kts | 239° |
| 2026-05-07 18:12 | 53.22630 | -6.78818 | 37929 ft | 424 kts | 239° |
| 2026-05-07 18:12 | 53.19586 | -6.87229 | 37930 ft | 423 kts | 239° |
| 2026-05-07 18:13 | 53.16534 | -6.95589 | 37926 ft | 420 kts | 238° |
| 2026-05-07 18:13 | 53.14989 | -6.99637 | 37903 ft | 408 kts | 237° |
| 2026-05-07 18:13 | 53.13457 | -7.03576 | 37740 ft | 403 kts | 237° |
| 2026-05-07 18:13 | 53.11928 | -7.07487 | 37161 ft | 403 kts | 237° |
| 2026-05-07 18:14 | 53.10391 | -7.11416 | 36389 ft | 409 kts | 237° |
| 2026-05-07 18:14 | 53.08835 | -7.15400 | 35812 ft | 410 kts | 237° |
| 2026-05-07 18:14 | 53.07292 | -7.19355 | 35415 ft | 406 kts | 237° |
| 2026-05-07 18:14 | 53.05762 | -7.23279 | 35102 ft | 401 kts | 237° |
| 2026-05-07 18:15 | 53.04247 | -7.27164 | 34448 ft | 404 kts | 236° |
| 2026-05-07 18:15 | 53.02698 | -7.31132 | 33489 ft | 414 kts | 236° |
| 2026-05-07 18:15 | 53.01123 | -7.35160 | 32775 ft | 416 kts | 236° |
| 2026-05-07 18:15 | 52.99558 | -7.39157 | 32336 ft | 411 kts | 236° |
| 2026-05-07 18:16 | 52.98011 | -7.43106 | 31950 ft | 405 kts | 236° |
| 2026-05-07 18:16 | 52.96480 | -7.47006 | 31518 ft | 401 kts | 236° |
| 2026-05-07 18:16 | 52.94961 | -7.50869 | 31039 ft | 399 kts | 236° |
| 2026-05-07 18:16 | 52.93452 | -7.54701 | 30579 ft | 396 kts | 236° |
| 2026-05-07 18:17 | 52.91947 | -7.58516 | 30136 ft | 393 kts | 236° |
| 2026-05-07 18:17 | 52.90455 | -7.62291 | 29644 ft | 391 kts | 236° |
| 2026-05-07 18:17 | 52.88965 | -7.66057 | 29045 ft | 390 kts | 236° |
| 2026-05-07 18:17 | 52.87486 | -7.69791 | 28570 ft | 386 kts | 236° |
| 2026-05-07 18:18 | 52.86022 | -7.73478 | 28106 ft | 379 kts | 236° |
| 2026-05-07 18:18 | 52.84605 | -7.77047 | 27434 ft | 373 kts | 236° |
| 2026-05-07 18:18 | 52.83183 | -7.80619 | 26632 ft | 371 kts | 236° |
| 2026-05-07 18:18 | 52.81772 | -7.84160 | 25897 ft | 367 kts | 236° |
| 2026-05-07 18:19 | 52.80374 | -7.87663 | 25242 ft | 363 kts | 236° |
| 2026-05-07 18:19 | 52.78993 | -7.91120 | 24595 ft | 358 kts | 236° |
| 2026-05-07 18:19 | 52.77630 | -7.94526 | 23953 ft | 354 kts | 236° |
| 2026-05-07 18:19 | 52.76280 | -7.97894 | 23297 ft | 350 kts | 236° |
| 2026-05-07 18:20 | 52.74946 | -8.01220 | 22561 ft | 346 kts | 236° |
| 2026-05-07 18:20 | 52.73625 | -8.04508 | 21857 ft | 342 kts | 236° |
| 2026-05-07 18:20 | 52.72316 | -8.07761 | 21128 ft | 339 kts | 235° |
| 2026-05-07 18:20 | 52.71016 | -8.10988 | 20432 ft | 336 kts | 235° |
| 2026-05-07 18:21 | 52.69730 | -8.14177 | 19791 ft | 332 kts | 235° |
| 2026-05-07 18:21 | 52.68454 | -8.17338 | 19147 ft | 330 kts | 235° |
| 2026-05-07 18:21 | 52.67189 | -8.20467 | 18523 ft | 327 kts | 235° |
| 2026-05-07 18:21 | 52.65935 | -8.23564 | 17867 ft | 324 kts | 236° |
| 2026-05-07 18:22 | 52.64690 | -8.26637 | 17196 ft | 320 kts | 236° |
| 2026-05-07 18:22 | 52.63875 | -8.28644 | 16751 ft | 318 kts | 236° |
| 2026-05-07 18:22 | 52.62238 | -8.32674 | 15884 ft | 314 kts | 236° |
| 2026-05-07 18:22 | 52.61033 | -8.35637 | 15237 ft | 312 kts | 236° |
| 2026-05-07 18:23 | 52.59832 | -8.38586 | 14626 ft | 309 kts | 236° |
| 2026-05-07 18:23 | 52.58639 | -8.41514 | 14019 ft | 307 kts | 236° |
| 2026-05-07 18:23 | 52.57457 | -8.44410 | 13372 ft | 305 kts | 236° |
| 2026-05-07 18:23 | 52.56280 | -8.47289 | 12709 ft | 302 kts | 236° |
| 2026-05-07 18:24 | 52.55107 | -8.50157 | 12042 ft | 301 kts | 236° |
| 2026-05-07 18:24 | 52.53945 | -8.52997 | 11435 ft | 300 kts | 236° |
| 2026-05-07 18:24 | 52.52781 | -8.55834 | 10841 ft | 298 kts | 236° |
| 2026-05-07 18:24 | 52.51649 | -8.58594 | 10658 ft | 283 kts | 236° |
| 2026-05-07 18:25 | 52.50579 | -8.61198 | 10551 ft | 268 kts | 236° |
| 2026-05-07 18:25 | 52.49563 | -8.63670 | 10432 ft | 254 kts | 236° |
| 2026-05-07 18:25 | 52.48598 | -8.66013 | 10308 ft | 242 kts | 236° |
| 2026-05-07 18:25 | 52.47662 | -8.68287 | 10003 ft | 239 kts | 236° |
| 2026-05-07 18:26 | 52.46732 | -8.70541 | 9604 ft | 239 kts | 236° |
| 2026-05-07 18:26 | 52.45803 | -8.72792 | 9228 ft | 237 kts | 236° |
| 2026-05-07 18:26 | 52.44882 | -8.75022 | 8859 ft | 236 kts | 236° |
| 2026-05-07 18:26 | 52.43964 | -8.77243 | 8480 ft | 235 kts | 236° |
| 2026-05-07 18:27 | 52.43043 | -8.79468 | 8139 ft | 238 kts | 236° |
| 2026-05-07 18:27 | 52.42110 | -8.81722 | 7859 ft | 239 kts | 236° |
| 2026-05-07 18:27 | 52.41170 | -8.83988 | 7549 ft | 242 kts | 236° |
| 2026-05-07 18:27 | 52.40222 | -8.86273 | 7281 ft | 243 kts | 236° |
| 2026-05-07 18:28 | 52.39272 | -8.88562 | 7015 ft | 244 kts | 236° |
| 2026-05-07 18:28 | 52.38315 | -8.90863 | 6756 ft | 245 kts | 236° |
| 2026-05-07 18:28 | 52.37357 | -8.93167 | 6505 ft | 245 kts | 235° |
| 2026-05-07 18:28 | 52.36398 | -8.95470 | 6258 ft | 245 kts | 235° |
| 2026-05-07 18:29 | 52.35441 | -8.97765 | 6016 ft | 242 kts | 235° |
| 2026-05-07 18:29 | 52.34495 | -9.00034 | 5753 ft | 241 kts | 235° |
| 2026-05-07 18:29 | 52.33559 | -9.02276 | 5482 ft | 236 kts | 235° |
| 2026-05-07 18:29 | 52.32661 | -9.04427 | 5320 ft | 226 kts | 235° |
| 2026-05-07 18:30 | 52.31793 | -9.06502 | 5206 ft | 219 kts | 235° |
| 2026-05-07 18:30 | 52.30938 | -9.08547 | 5138 ft | 218 kts | 235° |
| 2026-05-07 18:30 | 52.30064 | -9.10632 | 5052 ft | 220 kts | 235° |
| 2026-05-07 18:30 | 52.29195 | -9.12706 | 4971 ft | 222 kts | 235° |
| 2026-05-07 18:31 | 52.28318 | -9.14798 | 4843 ft | 224 kts | 235° |
| 2026-05-07 18:31 | 52.27438 | -9.16894 | 4596 ft | 228 kts | 235° |
| 2026-05-07 18:31 | 52.26535 | -9.19045 | 4362 ft | 225 kts | 235° |
| 2026-05-07 18:31 | 52.25677 | -9.21084 | 4127 ft | 217 kts | 235° |
| 2026-05-07 18:32 | 52.24823 | -9.23111 | 3877 ft | 211 kts | 235° |
| 2026-05-07 18:32 | 52.24012 | -9.25036 | 3641 ft | 206 kts | 235° |
| 2026-05-07 18:32 | 52.23341 | -9.27060 | 3400 ft | 201 kts | 252° |
| 2026-05-07 18:32 | 52.22973 | -9.29201 | 3206 ft | 192 kts | 250° |
| 2026-05-07 18:33 | 52.22537 | -9.31188 | 3052 ft | 180 kts | 249° |
| 2026-05-07 18:33 | 52.22128 | -9.33080 | 2843 ft | 176 kts | 250° |
| 2026-05-07 18:33 | 52.21724 | -9.34993 | 2563 ft | 176 kts | 249° |
| 2026-05-07 18:33 | 52.21327 | -9.36883 | 2287 ft | 175 kts | 250° |
| 2026-05-07 18:34 | 52.20942 | -9.38719 | 2005 ft | 172 kts | 250° |
| 2026-05-07 18:34 | 52.20567 | -9.40514 | 1727 ft | 163 kts | 250° |
| 2026-05-07 18:34 | 52.20216 | -9.42188 | 1497 ft | 148 kts | 250° |
| 2026-05-07 18:34 | 52.19897 | -9.43712 | 1251 ft | 138 kts | 250° |
| 2026-05-07 18:35 | 52.19586 | -9.45209 | 1012 ft | 141 kts | 249° |
| 2026-05-07 18:35 | 52.19269 | -9.46722 | 797 ft | 141 kts | 249° |
| 2026-05-07 18:35 | 52.18948 | -9.48244 | 566 ft | 144 kts | 249° |
| 2026-05-07 18:35 | 52.18626 | -9.49807 | 357 ft | 147 kts | 250° |
| 2026-05-07 18:36 | 52.18302 | -9.51356 | 114 ft | 139 kts | 249° |
| 2026-05-07 18:36 | 52.18058 | -9.52519 | 100 ft | 57 kts | 251° |
| 2026-05-07 18:36 | 52.17961 | -9.52982 | 102 ft | 34 kts | 251° |
| 2026-05-07 18:36 | 52.17905 | -9.53250 | 101 ft | 18 kts | 251° |
| 2026-05-07 18:37 | 52.17865 | -9.53441 | 102 ft | 14 kts | 251° |
| 2026-05-07 18:37 | 52.17861 | -9.53521 | 102 ft | 7 kts | 289° |
| 2026-05-07 18:37 | 52.17895 | -9.53566 | 101 ft | 7 kts | 340° |
| 2026-05-07 18:37 | 52.17941 | -9.53591 | 101 ft | 6 kts | 342° |
| 2026-05-07 18:38 | 52.17957 | -9.53600 | 101 ft | 0 kts | 342° |
| 2026-05-07 18:39 | 52.17958 | -9.53600 | 101 ft | 1 kts | 342° |
| 2026-05-07 18:39 | 52.17976 | -9.53610 | 103 ft | 5 kts | 342° |
| 2026-05-07 18:39 | 52.18012 | -9.53636 | 101 ft | 6 kts | 330° |
| 2026-05-07 18:39 | 52.18043 | -9.53667 | 101 ft | 3 kts | 329° |
| 2026-05-07 18:40 | 52.18059 | -9.53678 | 99 ft | 2 kts | 342° |
| 2026-05-07 18:40 | 52.18076 | -9.53680 | 102 ft | 2 kts | 358° |
| 2026-05-07 18:40 | 52.18091 | -9.53669 | 100 ft | 2 kts | 42° |
| 2026-05-07 18:40 | 52.18096 | -9.53645 | 103 ft | 2 kts | 84° |
| 2026-05-07 18:41 | 52.18094 | -9.53632 | 100 ft | 0 kts | 105° |